Time;durP1;ratioP1;P1;durP2;ratioP2;P2;SDS_P1;SDS_P2;PMS_P1;PMS_P2;Temp;Humidity;BMP_temperature;BMP_pressure;BME280_temperature;BME280_humidity;BME280_pressure;Samples;Min_cycle;Max_cycle;Signal;HPM_P1;HPM_P2
2022/04/16 00:00:27;;;;;;;37.60;16.10;;;7.50;99.90;;;;;;5159077;27;20133;-75
2022/04/16 00:02:54;;;;;;;37.00;15.27;;;7.10;99.90;;;;;;5174212;27;20107;-75
2022/04/16 00:05:23;;;;;;;34.20;15.20;;;7.00;99.90;;;;;;5173229;27;20034;-74
2022/04/16 00:08:06;;;;;;;38.88;14.40;;;7.40;99.90;;;;;;5168467;27;20050;-75
2022/04/16 00:10:37;;;;;;;36.65;15.57;;;6.90;99.90;;;;;;5142353;27;20113;-74
2022/04/16 00:13:04;;;;;;;38.13;15.00;;;6.90;99.90;;;;;;5158469;27;20050;-74
2022/04/16 00:15:30;;;;;;;35.63;15.02;;;6.90;99.90;;;;;;5139831;27;20042;-75
2022/04/16 00:17:56;;;;;;;38.17;16.08;;;6.80;99.90;;;;;;5138823;27;20084;-76
2022/04/16 00:20:25;;;;;;;41.28;16.73;;;6.80;99.90;;;;;;5156199;27;20159;-75
2022/04/16 00:22:52;;;;;;;37.70;15.32;;;6.70;99.90;;;;;;5156668;27;20093;-75
2022/04/16 00:25:19;;;;;;;41.20;15.90;;;6.70;99.90;;;;;;5157174;27;20046;-75
2022/04/16 00:27:46;;;;;;;39.10;16.15;;;6.70;99.90;;;;;;5156269;27;20043;-75
2022/04/16 00:30:13;;;;;;;37.22;16.02;;;6.70;99.90;;;;;;5137904;27;20099;-75
2022/04/16 00:32:44;;;;;;;37.25;16.52;;;6.60;99.90;;;;;;5138370;27;20046;-75
2022/04/16 00:35:12;;;;;;;45.95;17.35;;;6.60;99.90;;;;;;5155958;27;20046;-75
2022/04/16 00:37:38;;;;;;;41.75;18.10;;;6.60;99.90;;;;;;5156017;27;20042;-75
2022/04/16 00:40:04;;;;;;;41.00;17.73;;;6.60;99.90;;;;;;5137969;27;20442;-75
2022/04/16 00:42:41;;;;;;;49.58;20.02;;;6.50;99.90;;;;;;5156819;27;20504;-75
2022/04/16 00:45:07;;;;;;;56.60;21.27;;;6.50;99.90;;;;;;5156713;27;20058;-75
2022/04/16 00:47:33;;;;;;;49.97;18.77;;;6.50;99.90;;;;;;5155584;27;20400;-75
2022/04/16 00:50:00;;;;;;;48.95;20.65;;;6.40;99.90;;;;;;5137552;27;20050;-76
2022/04/16 00:52:26;;;;;;;53.97;21.17;;;6.40;99.90;;;;;;5136904;27;20093;-76
2022/04/16 00:54:55;;;;;;;50.90;21.33;;;6.40;99.90;;;;;;5137519;27;20292;-75
2022/04/16 00:57:23;;;;;;;53.70;21.95;;;6.30;99.90;;;;;;5119691;27;20046;-75
2022/04/16 00:59:49;;;;;;;50.83;20.50;;;6.30;99.90;;;;;;5137837;27;20057;-76
2022/04/16 01:02:15;;;;;;;51.35;20.00;;;6.30;99.90;;;;;;5136915;27;20043;-76
2022/04/16 01:04:40;;;;;;;49.20;19.75;;;6.30;99.90;;;;;;5155559;27;20064;-75
2022/04/16 01:07:08;;;;;;;60.17;20.75;;;6.30;99.90;;;;;;5137190;27;20046;-76
2022/04/16 01:09:33;;;;;;;;;;;6.20;99.90;;;;;;5155694;27;20045;-75
2022/04/16 01:12:00;;;;;;;48.85;18.67;;;6.20;99.90;;;;;;5137829;27;19958;-77
2022/04/16 01:14:26;;;;;;;46.75;18.73;;;6.20;99.90;;;;;;5136611;27;20046;-77
2022/04/16 01:16:56;;;;;;;51.80;20.73;;;6.20;99.90;;;;;;5136869;27;20051;-75
2022/04/16 01:19:23;;;;;;;60.40;21.98;;;6.30;99.90;;;;;;5138331;27;20068;-75
2022/04/16 01:21:51;;;;;;;;;;;6.20;99.90;;;;;;5138235;27;20047;-75
2022/04/16 01:24:26;;;;;;;49.25;19.15;;;6.10;99.90;;;;;;5155701;27;19922;-75
2022/04/16 01:26:52;;;;;;;54.20;21.17;;;6.10;99.90;;;;;;5136776;27;20130;-74
2022/04/16 01:29:17;;;;;;;52.60;20.15;;;6.10;99.90;;;;;;5119340;27;20461;-74
2022/04/16 01:31:43;;;;;;;55.92;20.45;;;6.10;99.90;;;;;;5118675;27;20034;-76
2022/04/16 01:34:09;;;;;;;57.17;21.15;;;6.20;99.90;;;;;;5136906;27;20049;-74
2022/04/16 01:36:35;;;;;;;51.10;20.83;;;6.30;99.90;;;;;;5155110;27;20038;-76
2022/04/16 01:39:02;;;;;;;51.05;20.27;;;6.30;99.90;;;;;;5135971;27;20382;-75
2022/04/16 01:41:28;;;;;;;53.22;20.83;;;6.30;99.90;;;;;;5136180;27;20042;-75
2022/04/16 01:43:54;;;;;;;58.67;21.65;;;6.30;99.90;;;;;;5136117;27;20501;-75
2022/04/16 01:46:21;;;;;;;50.30;21.20;;;6.40;99.90;;;;;;5159049;27;20086;-75
2022/04/16 01:48:49;;;;;;;62.63;22.50;;;6.40;99.90;;;;;;5160967;27;20066;-74
2022/04/16 01:51:17;;;;;;;58.58;21.13;;;6.60;99.90;;;;;;5122861;27;20047;-75
2022/04/16 01:53:44;;;;;;;59.90;22.52;;;6.60;99.90;;;;;;5154942;27;20038;-75
2022/04/16 01:56:11;;;;;;;64.00;23.38;;;6.60;99.90;;;;;;5155224;27;20042;-75
2022/04/16 01:58:41;;;;;;;53.42;20.83;;;6.50;99.90;;;;;;5136735;27;20047;-74
2022/04/16 02:01:07;;;;;;;60.33;23.13;;;6.40;99.90;;;;;;5135810;27;20035;-75
2022/04/16 02:03:34;;;;;;;60.25;22.90;;;6.40;99.90;;;;;;5154783;27;20039;-76
2022/04/16 02:06:00;;;;;;;58.78;23.42;;;6.30;99.90;;;;;;5137319;27;20046;-74
2022/04/16 02:08:26;;;;;;;53.78;22.42;;;6.20;99.90;;;;;;5120743;27;20039;-74
2022/04/16 02:10:52;;;;;;;58.90;22.90;;;6.20;99.90;;;;;;5157104;27;20069;-74
2022/04/16 02:13:18;;;;;;;57.30;23.17;;;6.20;99.90;;;;;;5156030;27;20042;-77
2022/04/16 02:15:43;;;;;;;62.38;24.95;;;6.20;99.90;;;;;;5136080;27;20035;-74
2022/04/16 02:18:09;;;;;;;69.35;25.50;;;6.10;99.90;;;;;;5154449;27;20047;-76
2022/04/16 02:20:38;;;;;;;63.83;22.02;;;6.10;99.90;;;;;;5155497;27;20053;-75
2022/04/16 02:23:04;;;;;;;59.57;21.90;;;6.10;99.90;;;;;;5137401;27;20042;-77
2022/04/16 02:25:33;;;;;;;52.40;22.05;;;6.00;99.90;;;;;;5137172;27;20379;-76
2022/04/16 02:27:58;;;;;;;54.63;20.95;;;6.10;99.90;;;;;;5155151;27;20054;-75
2022/04/16 02:30:24;;;;;;;57.90;22.33;;;6.00;99.90;;;;;;5155285;27;20082;-75
2022/04/16 02:32:53;;;;;;;53.00;22.02;;;5.90;99.90;;;;;;5137217;27;20089;-75
2022/04/16 02:35:21;;;;;;;55.40;20.92;;;5.90;99.90;;;;;;5155362;27;20050;-77
2022/04/16 02:37:47;;;;;;;59.45;21.67;;;5.80;99.90;;;;;;5137136;27;20066;-76
2022/04/16 02:40:14;;;;;;;63.20;22.85;;;5.80;99.90;;;;;;5156585;27;20062;-76
2022/04/16 02:42:42;;;;;;;63.63;23.35;;;5.70;99.90;;;;;;5107307;27;20068;-76
2022/04/16 02:48:11;;;;;;;58.95;22.60;;;5.70;99.90;;;;;;5084596;28;20063;-75
2022/04/16 02:50:37;;;;;;;55.55;22.08;;;5.60;99.90;;;;;;5135029;27;20078;-74
2022/04/16 02:53:02;;;;;;;61.97;23.40;;;5.60;99.90;;;;;;5122703;27;20056;-75
2022/04/16 02:55:28;;;;;;;62.65;24.15;;;5.60;99.90;;;;;;5122855;27;20038;-75
2022/04/16 02:57:55;;;;;;;67.05;23.20;;;5.60;99.90;;;;;;5152962;27;20058;-75
2022/04/16 03:00:21;;;;;;;65.13;23.15;;;5.60;99.90;;;;;;5155429;27;20039;-74
2022/04/16 03:02:48;;;;;;;61.88;23.35;;;5.60;99.90;;;;;;5154385;27;20050;-76
2022/04/16 03:05:14;;;;;;;63.50;24.05;;;5.60;99.90;;;;;;5172643;27;20031;-75
2022/04/16 03:07:40;;;;;;;63.60;23.63;;;5.50;99.90;;;;;;5151363;27;20042;-76
2022/04/16 03:10:08;;;;;;;58.80;22.30;;;5.60;99.90;;;;;;5168195;27;20051;-75
2022/04/16 03:12:48;;;;;;;65.65;23.20;;;5.60;99.90;;;;;;5169272;27;20059;-74
2022/04/16 03:18:00;;;;;;;66.22;23.88;;;5.50;99.90;;;;;;5163524;27;20050;-74
2022/04/16 03:20:27;;;;;;;67.40;23.77;;;5.50;99.90;;;;;;5163550;27;20154;-75
2022/04/16 03:22:53;;;;;;;;;;;5.50;99.90;;;;;;5165066;27;20343;-76
2022/04/16 03:25:19;;;;;;;62.22;23.27;;;5.40;99.90;;;;;;5128781;27;20430;-75
2022/04/16 03:27:45;;;;;;;65.68;23.45;;;5.40;99.90;;;;;;5165925;27;20038;-75
2022/04/16 03:30:11;;;;;;;62.80;23.45;;;5.50;99.90;;;;;;5167532;27;20042;-74
2022/04/16 03:32:41;;;;;;;67.70;22.77;;;5.50;99.90;;;;;;5148131;27;20087;-74
2022/04/16 03:35:08;;;;;;;72.55;24.58;;;5.60;99.90;;;;;;5149661;27;20049;-75
2022/04/16 03:37:35;;;;;;;;;;;5.70;99.90;;;;;;5151396;27;20054;-75
2022/04/16 03:40:01;;;;;;;68.75;24.10;;;5.80;99.90;;;;;;5151506;27;19968;-75
2022/04/16 03:42:26;;;;;;;70.30;25.23;;;5.80;99.90;;;;;;5168881;27;20047;-74
2022/04/16 03:44:52;;;;;;;64.45;25.08;;;6.00;99.90;;;;;;5167910;27;20115;-75
2022/04/16 03:47:18;;;;;;;74.63;25.23;;;6.00;99.90;;;;;;5149108;27;20095;-76
2022/04/16 03:49:44;;;;;;;76.95;25.10;;;6.10;99.90;;;;;;5164394;27;20078;-76
2022/04/16 03:52:09;;;;;;;71.13;24.58;;;6.20;99.90;;;;;;5163967;27;20447;-76
2022/04/16 04:00:05;;;;;;;64.35;24.50;;;6.40;99.90;;;;;;5157569;27;20380;-76
2022/04/16 04:02:33;;;;;;;;;;;6.50;99.90;;;;;;5138761;27;20046;-75
2022/04/16 04:04:59;;;;;;;67.07;24.08;;;6.60;99.90;;;;;;5157281;27;20249;-74
2022/04/16 04:07:25;;;;;;;70.95;23.98;;;6.70;99.90;;;;;;5156204;27;20130;-75
2022/04/16 04:09:52;;;;;;;70.00;24.25;;;6.80;99.90;;;;;;5156636;27;20103;-74
2022/04/16 04:12:17;;;;;;;66.22;24.88;;;6.90;99.90;;;;;;5120325;27;20046;-75
2022/04/16 04:14:45;;;;;;;73.10;25.17;;;6.90;99.90;;;;;;5137892;27;20035;-76
2022/04/16 04:17:11;;;;;;;71.97;25.08;;;6.90;99.90;;;;;;5137928;27;20050;-74
2022/04/16 04:19:38;;;;;;;70.78;24.63;;;6.90;99.90;;;;;;5138046;27;20077;-74
2022/04/16 04:22:06;;;;;;;68.68;25.80;;;7.10;99.90;;;;;;5137659;27;20047;-75
2022/04/16 04:24:31;;;;;;;;;;;7.10;99.90;;;;;;5104503;27;20042;-75
2022/04/16 04:27:01;;;;;;;65.25;21.63;;;7.10;99.90;;;;;;5157512;27;19926;-73
2022/04/16 04:29:27;;;;;;;66.65;23.48;;;7.20;99.90;;;;;;5156346;27;20079;-74
2022/04/16 04:31:54;;;;;;;64.45;24.48;;;7.30;99.90;;;;;;5137453;27;20047;-73
2022/04/16 04:34:20;;;;;;;63.67;22.65;;;7.30;99.90;;;;;;5138599;27;20038;-74
2022/04/16 04:36:46;;;;;;;65.80;24.60;;;7.30;99.90;;;;;;5138264;27;20041;-74
2022/04/16 04:39:12;;;;;;;64.75;23.92;;;7.40;99.90;;;;;;5156558;27;20103;-74
2022/04/16 04:41:39;;;;;;;62.47;24.02;;;7.40;99.90;;;;;;5137401;27;20050;-74
2022/04/16 04:44:05;;;;;;;60.83;23.13;;;7.40;99.90;;;;;;5120453;27;20046;-73
2022/04/16 04:46:31;;;;;;;57.70;23.00;;;7.40;99.90;;;;;;5137656;27;20051;-75
2022/04/16 04:48:57;;;;;;;59.92;22.05;;;7.50;99.90;;;;;;5137822;27;20046;-74
2022/04/16 04:51:23;;;;;;;57.33;22.70;;;7.50;99.90;;;;;;5137171;27;20045;-75
2022/04/16 04:53:48;;;;;;;51.10;20.92;;;7.50;99.90;;;;;;5155604;27;20047;-75
2022/04/16 04:56:14;;;;;;;51.28;20.90;;;7.60;99.90;;;;;;5155404;27;20078;-74
2022/04/16 04:58:40;;;;;;;51.95;19.58;;;7.60;99.90;;;;;;5155457;27;20096;-72
2022/04/16 05:01:05;;;;;;;51.78;21.23;;;7.70;99.90;;;;;;5119770;27;20108;-72
2022/04/16 05:03:31;;;;;;;48.50;19.23;;;7.70;99.90;;;;;;5155185;27;20398;-73
2022/04/16 05:05:57;;;;;;;52.45;21.02;;;7.70;99.90;;;;;;5155238;27;20163;-74
2022/04/16 05:08:23;;;;;;;49.92;20.13;;;7.70;99.90;;;;;;5136910;27;20043;-74
2022/04/16 05:10:48;;;;;;;48.92;19.40;;;7.70;99.90;;;;;;5136646;27;20451;-74
2022/04/16 05:13:14;;;;;;;50.20;19.17;;;7.70;99.90;;;;;;5155596;27;20082;-76
2022/04/16 05:15:40;;;;;;;50.38;19.08;;;7.80;99.90;;;;;;5137060;27;20394;-74
2022/04/16 05:18:06;;;;;;;51.40;20.73;;;7.80;99.90;;;;;;5136823;27;20530;-74
2022/04/16 05:20:31;;;;;;;51.80;21.52;;;7.90;99.90;;;;;;5136787;27;20197;-74
2022/04/16 05:22:57;;;;;;;45.53;19.90;;;7.80;99.90;;;;;;5136989;27;20470;-75
2022/04/16 05:25:23;;;;;;;53.67;21.75;;;7.80;99.90;;;;;;5155211;27;20085;-76
2022/04/16 05:27:48;;;;;;;46.25;19.50;;;7.80;99.90;;;;;;5119269;27;20050;-74
2022/04/16 05:30:22;;;;;;;42.92;17.23;;;7.90;99.90;;;;;;5136637;27;20089;-72
2022/04/16 05:32:49;;;;;;;44.17;18.65;;;7.90;99.90;;;;;;5137816;27;20038;-74
2022/04/16 05:35:16;;;;;;;47.15;20.50;;;7.90;99.90;;;;;;5155526;27;20047;-74
2022/04/16 05:37:42;;;;;;;42.08;16.52;;;8.00;99.90;;;;;;5118955;27;20051;-76
2022/04/16 05:40:10;;;;;;;42.58;17.23;;;8.10;99.90;;;;;;5136545;27;20042;-75
2022/04/16 05:42:42;;;;;;;42.25;17.85;;;8.10;99.90;;;;;;5136152;27;20083;-74
2022/04/16 05:45:09;;;;;;;42.92;18.67;;;8.10;99.90;;;;;;5155412;27;20074;-75
2022/04/16 05:47:35;;;;;;;39.72;17.55;;;8.20;99.90;;;;;;5135771;27;20046;-73
2022/04/16 05:50:02;;;;;;;43.42;17.35;;;8.20;99.90;;;;;;5135978;27;20050;-73
2022/04/16 05:52:28;;;;;;;41.63;16.73;;;8.20;99.90;;;;;;5136187;27;20039;-73
2022/04/16 05:54:54;;;;;;;41.65;16.75;;;8.30;99.90;;;;;;5119397;27;20558;-75
2022/04/16 05:57:21;;;;;;;41.90;16.63;;;8.30;99.90;;;;;;5136100;27;20051;-74
2022/04/16 05:59:49;;;;;;;41.38;15.52;;;8.50;99.90;;;;;;5135898;27;20319;-75
2022/04/16 06:02:14;;;;;;;38.05;15.68;;;8.50;99.90;;;;;;5135758;27;20501;-74
2022/04/16 06:04:40;;;;;;;44.40;16.20;;;8.50;99.90;;;;;;5136419;27;20129;-75
2022/04/16 06:07:06;;;;;;;43.17;16.23;;;8.50;99.90;;;;;;5135461;27;20107;-75
2022/04/16 06:09:32;;;;;;;39.33;16.83;;;8.50;99.90;;;;;;5102335;27;20062;-74
2022/04/16 06:12:03;;;;;;;47.30;18.05;;;8.50;99.90;;;;;;5135961;27;20102;-73
2022/04/16 06:14:30;;;;;;;39.42;16.70;;;8.50;99.90;;;;;;5122630;27;20043;-73
2022/04/16 06:16:55;;;;;;;39.03;17.08;;;8.50;99.90;;;;;;5139072;27;20129;-75
2022/04/16 06:19:21;;;;;;;41.60;16.80;;;8.60;99.90;;;;;;5123127;27;20171;-74
2022/04/16 06:21:47;;;;;;;39.55;15.40;;;8.60;99.90;;;;;;5158672;27;20095;-76
2022/04/16 06:24:13;;;;;;;42.45;17.95;;;8.60;99.90;;;;;;5140709;27;20449;-73
2022/04/16 06:26:38;;;;;;;46.08;16.95;;;8.60;99.90;;;;;;5122591;27;20054;-74
2022/04/16 06:29:04;;;;;;;41.83;16.23;;;8.60;99.90;;;;;;5122812;27;20050;-73
2022/04/16 06:31:30;;;;;;;41.53;16.63;;;8.70;99.90;;;;;;5139767;27;20443;-76
2022/04/16 06:33:55;;;;;;;42.50;16.55;;;8.70;99.90;;;;;;5158134;27;20034;-73
2022/04/16 06:36:21;;;;;;;38.92;15.50;;;8.70;99.90;;;;;;5139807;27;20049;-73
2022/04/16 06:38:47;;;;;;;46.05;17.02;;;8.80;99.90;;;;;;5139102;27;20051;-72
2022/04/16 06:41:13;;;;;;;43.65;16.63;;;8.70;99.90;;;;;;5139941;27;20117;-74
2022/04/16 06:43:38;;;;;;;43.88;17.27;;;8.80;99.90;;;;;;5122689;27;20364;-73
2022/04/16 06:46:06;;;;;;;43.47;16.38;;;8.70;99.90;;;;;;5159309;27;20458;-74
2022/04/16 06:48:31;;;;;;;42.30;15.60;;;8.80;99.90;;;;;;5158201;27;20178;-74
2022/04/16 06:50:57;;;;;;;41.00;16.52;;;8.80;99.90;;;;;;5122252;27;20495;-73
2022/04/16 06:53:26;;;;;;;43.80;16.35;;;8.90;99.90;;;;;;5158867;27;20047;-74
2022/04/16 06:55:52;;;;;;;40.35;15.40;;;9.00;99.90;;;;;;5159137;27;20270;-75
2022/04/16 06:58:18;;;;;;;39.90;14.57;;;9.00;99.90;;;;;;5139758;27;20473;-74
2022/04/16 07:00:44;;;;;;;41.65;15.82;;;9.00;99.90;;;;;;5122959;27;20114;-76
2022/04/16 07:03:10;;;;;;;43.17;14.80;;;9.10;99.90;;;;;;5158480;27;20111;-73
2022/04/16 07:05:35;;;;;;;34.70;15.00;;;9.10;99.90;;;;;;5139104;27;20050;-75
2022/04/16 07:08:01;;;;;;;38.10;15.25;;;9.10;99.90;;;;;;5139582;27;20058;-74
2022/04/16 07:10:27;;;;;;;38.85;13.98;;;9.20;99.90;;;;;;5158172;27;20133;-73
2022/04/16 07:12:52;;;;;;;38.38;14.35;;;9.30;99.90;;;;;;5157304;27;20038;-74
2022/04/16 07:15:18;;;;;;;39.13;15.23;;;9.30;99.90;;;;;;5157751;27;20050;-75
2022/04/16 07:17:45;;;;;;;38.22;15.10;;;9.30;99.90;;;;;;5122037;27;20047;-75
2022/04/16 07:20:11;;;;;;;38.67;15.73;;;9.30;99.90;;;;;;5157661;27;20057;-76
2022/04/16 07:22:37;;;;;;;34.13;12.23;;;9.10;99.90;;;;;;5139094;27;20046;-74
2022/04/16 07:25:05;;;;;;;34.88;13.82;;;9.40;99.90;;;;;;5104858;27;20046;-75
2022/04/16 07:27:31;;;;;;;;;;;9.50;99.90;;;;;;5157633;27;20102;-75
2022/04/16 07:29:58;;;;;;;35.45;13.60;;;9.50;99.90;;;;;;5137407;27;19919;-75
2022/04/16 07:32:27;;;;;;;36.58;14.60;;;9.50;99.90;;;;;;5138780;27;20066;-76
2022/04/16 07:34:54;;;;;;;41.53;13.88;;;9.60;99.90;;;;;;5139433;27;20144;-76
2022/04/16 07:37:20;;;;;;;32.13;11.80;;;9.70;99.90;;;;;;5157170;27;20142;-74
2022/04/16 07:39:48;;;;;;;36.22;13.55;;;9.80;99.90;;;;;;5138597;27;20539;-75
2022/04/16 07:42:14;;;;;;;33.72;13.30;;;9.90;99.90;;;;;;5139382;27;20046;-75
2022/04/16 07:44:39;;;;;;;37.45;13.20;;;9.80;99.90;;;;;;5150199;27;20034;-74
2022/04/16 07:47:06;;;;;;;36.53;13.98;;;9.90;99.90;;;;;;5152740;27;20095;-73
2022/04/16 07:49:35;;;;;;;31.15;13.00;;;10.00;99.90;;;;;;5143812;27;20502;-74
2022/04/16 07:52:00;;;;;;;27.83;11.68;;;10.00;99.90;;;;;;5104235;27;20082;-75
2022/04/16 07:54:26;;;;;;;32.55;12.43;;;10.00;99.90;;;;;;5156924;27;20046;-74
2022/04/16 07:56:52;;;;;;;33.10;13.68;;;10.10;99.90;;;;;;5156626;27;20043;-74
2022/04/16 07:59:17;;;;;;;30.38;12.98;;;10.30;99.90;;;;;;5104881;27;20043;-74
2022/04/16 08:01:43;;;;;;;28.73;11.82;;;10.40;99.90;;;;;;5121317;27;20039;-76
2022/04/16 08:04:10;;;;;;;29.35;12.60;;;10.50;99.90;;;;;;5104093;27;20039;-75
2022/04/16 08:06:36;;;;;;;;;;;10.50;99.90;;;;;;5138612;27;20047;-74
2022/04/16 08:09:03;;;;;;;28.67;10.50;;;10.50;99.90;;;;;;5156836;27;20013;-74
2022/04/16 08:11:33;;;;;;;29.13;10.95;;;10.60;99.90;;;;;;5156969;27;20042;-74
2022/04/16 08:13:59;;;;;;;26.52;10.98;;;10.60;99.90;;;;;;5138195;27;20085;-74
2022/04/16 08:16:25;;;;;;;24.35;11.48;;;10.60;99.90;;;;;;5120644;27;20094;-74
2022/04/16 08:18:51;;;;;;;28.10;12.02;;;10.60;99.90;;;;;;5104031;27;20158;-73
2022/04/16 08:21:17;;;;;;;23.77;9.60;;;10.70;99.90;;;;;;5156317;27;20117;-74
2022/04/16 08:23:54;;;;;;;23.80;9.40;;;10.70;99.90;;;;;;5137362;27;20138;-74
2022/04/16 08:26:24;;;;;;;21.73;8.02;;;10.70;99.90;;;;;;5156215;27;20042;-74
2022/04/16 08:28:50;;;;;;;21.13;8.10;;;10.70;99.90;;;;;;5137752;27;20053;-74
2022/04/16 08:31:16;;;;;;;16.58;7.65;;;10.70;99.90;;;;;;5155919;27;20057;-74
2022/04/16 08:33:42;;;;;;;18.77;7.90;;;10.70;99.90;;;;;;5108217;27;20129;-74
2022/04/16 08:36:08;;;;;;;22.10;8.48;;;10.70;99.90;;;;;;5143597;27;20054;-75
2022/04/16 08:38:34;;;;;;;21.35;8.15;;;10.70;99.90;;;;;;5142500;27;20094;-75
2022/04/16 08:41:04;;;;;;;25.95;8.98;;;10.80;99.90;;;;;;5123227;27;20137;-76
2022/04/16 08:43:30;;;;;;;23.13;8.32;;;10.80;99.90;;;;;;5125207;27;20046;-74
2022/04/16 08:45:57;;;;;;;20.75;7.55;;;10.90;99.90;;;;;;5164506;27;20066;-75
2022/04/16 08:48:24;;;;;;;19.98;7.90;;;10.80;99.90;;;;;;5110166;27;20142;-74
2022/04/16 08:50:50;;;;;;;16.25;6.45;;;10.90;99.90;;;;;;5141900;27;20412;-77
2022/04/16 08:53:16;;;;;;;13.52;4.60;;;11.00;99.90;;;;;;5161017;27;20043;-75
2022/04/16 08:55:42;;;;;;;13.85;4.75;;;11.10;99.90;;;;;;5163711;27;20038;-71
2022/04/16 08:58:08;;;;;;;12.50;4.05;;;11.10;99.90;;;;;;5142833;27;20050;-74
2022/04/16 09:00:33;;;;;;;14.80;4.60;;;11.20;99.90;;;;;;5141993;27;20507;-73
2022/04/16 09:03:03;;;;;;;10.55;3.83;;;11.10;99.90;;;;;;5125816;27;20042;-73
2022/04/16 09:05:30;;;;;;;11.00;3.97;;;11.10;99.90;;;;;;5172010;27;20057;-75
2022/04/16 09:07:59;;;;;;;7.97;2.55;;;11.10;99.90;;;;;;5129695;27;20050;-75
2022/04/16 09:10:33;;;;;;;12.07;3.80;;;11.10;99.90;;;;;;5163442;27;20125;-73
2022/04/16 09:13:01;;;;;;;10.70;3.92;;;11.20;99.90;;;;;;5162320;27;20057;-75
2022/04/16 09:15:28;;;;;;;10.48;2.63;;;11.20;99.90;;;;;;5148137;27;20058;-74
2022/04/16 09:18:04;;;;;;;;;;;11.20;99.90;;;;;;5149303;27;20382;-73
2022/04/16 09:20:33;;;;;;;8.20;2.30;;;11.30;99.90;;;;;;5147018;27;19918;-76
2022/04/16 09:23:00;;;;;;;7.03;2.38;;;11.30;99.90;;;;;;5142709;27;20046;-72
2022/04/16 09:25:29;;;;;;;5.78;1.75;;;11.30;99.90;;;;;;5123108;27;20066;-76
2022/04/16 09:27:55;;;;;;;6.78;2.38;;;11.40;99.90;;;;;;5140885;27;20106;-74
2022/04/16 09:30:30;;;;;;;5.88;2.30;;;11.30;99.90;;;;;;5140840;27;20074;-71
2022/04/16 09:32:57;;;;;;;10.05;2.88;;;11.40;99.90;;;;;;5122976;27;20078;-73
2022/04/16 09:35:35;;;;;;;8.07;2.45;;;11.50;99.90;;;;;;5139126;27;20053;-72
2022/04/16 09:38:03;;;;;;;5.70;2.20;;;11.50;99.90;;;;;;5157525;27;20050;-71
2022/04/16 09:40:33;;;;;;;8.77;1.90;;;11.60;99.90;;;;;;5139423;27;20042;-71
2022/04/16 09:43:02;;;;;;;7.72;2.10;;;11.70;99.90;;;;;;5158144;27;20053;-73
2022/04/16 09:45:29;;;;;;;6.90;2.10;;;11.80;99.90;;;;;;5158644;27;20388;-72
2022/04/16 09:47:55;;;;;;;4.75;1.65;;;11.80;99.90;;;;;;5140873;27;20153;-74
2022/04/16 09:50:24;;;;;;;6.95;2.40;;;11.80;99.90;;;;;;5139592;27;20070;-72
2022/04/16 09:52:51;;;;;;;11.75;5.07;;;11.80;99.90;;;;;;5139060;27;20380;-72
2022/04/16 09:55:20;;;;;;;12.50;4.10;;;11.90;99.90;;;;;;5138610;27;20120;-72
2022/04/16 09:57:51;;;;;;;10.18;2.75;;;11.90;99.90;;;;;;5158120;27;20490;-72
2022/04/16 10:00:18;;;;;;;6.43;2.00;;;11.90;99.90;;;;;;5141902;27;20142;-72
2022/04/16 10:02:45;;;;;;;6.85;2.60;;;12.00;99.90;;;;;;5160009;27;20058;-72
2022/04/16 10:05:11;;;;;;;;;;;12.00;99.90;;;;;;5140722;27;20390;-72
2022/04/16 10:07:37;;;;;;;5.47;1.60;;;12.00;99.90;;;;;;5140008;27;19919;-70
2022/04/16 10:10:17;;;;;;;6.05;1.70;;;12.00;99.90;;;;;;5159419;27;20057;-72
2022/04/16 10:13:01;;;;;;;5.72;1.58;;;12.10;99.90;;;;;;5140006;27;20043;-71
2022/04/16 10:16:25;;;;;;;5.03;1.55;;;12.10;99.90;;;;;;5158059;27;20554;-72
2022/04/16 10:18:51;;;;;;;4.63;1.10;;;12.10;99.70;;;;;;5047501;28;20061;-73
2022/04/16 10:21:17;;;;;;;4.22;1.35;;;12.20;97.10;;;;;;5120661;27;20384;-71
2022/04/16 10:23:43;;;;;;;5.70;0.98;;;12.20;96.70;;;;;;5141694;27;20411;-71
2022/04/16 10:26:14;;;;;;;7.97;1.55;;;12.20;92.50;;;;;;5144367;27;20054;-71
2022/04/16 10:28:42;;;;;;;4.43;1.38;;;12.20;91.30;;;;;;5143835;27;20092;-72
2022/04/16 10:31:20;;;;;;;5.97;1.73;;;12.20;92.70;;;;;;5159610;27;20058;-73
2022/04/16 10:34:05;;;;;;;4.28;1.50;;;12.10;94.70;;;;;;5159783;27;20047;-70
2022/04/16 10:36:37;;;;;;;4.13;1.52;;;12.20;94.90;;;;;;5129340;27;20127;-71
2022/04/16 10:39:23;;;;;;;3.72;1.10;;;12.40;93.70;;;;;;5163645;27;20506;-72
2022/04/16 10:42:03;;;;;;;6.20;1.50;;;12.50;90.90;;;;;;5149105;27;20129;-73
2022/04/16 10:44:48;;;;;;;6.00;2.40;;;12.60;90.70;;;;;;5150608;27;20049;-71
2022/04/16 10:47:15;;;;;;;6.55;1.90;;;12.50;91.30;;;;;;5150020;27;20076;-73
2022/04/16 10:49:42;;;;;;;4.88;1.95;;;12.50;90.60;;;;;;5132553;27;20129;-71
2022/04/16 10:52:26;;;;;;;2.78;0.82;;;12.40;90.90;;;;;;5168580;27;20043;-72
2022/04/16 10:55:03;;;;;;;2.92;1.10;;;12.50;90.70;;;;;;5147826;27;20039;-72
2022/04/16 10:57:29;;;;;;;3.35;1.35;;;12.60;90.50;;;;;;5144676;27;20039;-73
2022/04/16 11:00:13;;;;;;;3.85;1.20;;;12.60;87.10;;;;;;5147727;27;20138;-70
2022/04/16 11:02:39;;;;;;;4.07;1.30;;;12.60;88.30;;;;;;5131630;27;20046;-72
2022/04/16 11:05:09;;;;;;;4.20;1.10;;;12.50;85.90;;;;;;5130891;27;20042;-74
2022/04/16 11:07:37;;;;;;;4.15;1.30;;;12.60;84.50;;;;;;5164883;27;20195;-72
2022/04/16 11:10:05;;;;;;;4.88;1.30;;;12.70;86.10;;;;;;5145827;27;20047;-73
2022/04/16 11:12:30;;;;;;;3.30;1.33;;;12.70;89.50;;;;;;5144416;27;20414;-73
2022/04/16 11:14:56;;;;;;;4.60;1.10;;;12.80;89.50;;;;;;5127188;27;20035;-72
2022/04/16 11:17:22;;;;;;;2.90;0.98;;;12.80;88.90;;;;;;5163608;27;20046;-73
2022/04/16 11:20:02;;;;;;;3.95;1.25;;;12.90;82.70;;;;;;5143151;27;20050;-72
2022/04/16 11:22:28;;;;;;;3.63;1.23;;;12.90;81.30;;;;;;5143702;27;20054;-72
2022/04/16 11:24:55;;;;;;;5.70;1.00;;;13.00;78.30;;;;;;5162093;27;20046;-74
2022/04/16 11:36:20;;;;;;;4.13;1.15;;;13.10;82.30;;;;;;5117589;27;20085;-73
2022/04/16 11:38:46;;;;;;;3.83;0.85;;;13.10;84.50;;;;;;5123335;27;20055;-73
2022/04/16 11:41:13;;;;;;;3.45;1.30;;;13.10;84.30;;;;;;5124507;27;20045;-72
2022/04/16 11:43:51;;;;;;;3.25;1.10;;;13.20;83.40;;;;;;5142516;27;20057;-74
2022/04/16 11:46:17;;;;;;;2.67;0.80;;;13.20;82.60;;;;;;5140461;27;20122;-74
2022/04/16 11:48:47;;;;;;;6.13;1.00;;;13.20;81.40;;;;;;5122928;27;20055;-73
2022/04/16 11:51:14;;;;;;;3.08;1.00;;;13.20;80.90;;;;;;5159747;27;20047;-73
2022/04/16 11:53:48;;;;;;;;;;;13.20;79.60;;;;;;5124442;27;20104;-74
2022/04/16 11:56:22;;;;;;;3.28;1.00;;;13.30;84.10;;;;;;5140921;27;20382;-74
2022/04/16 11:58:51;;;;;;;3.90;1.10;;;13.30;75.50;;;;;;5123360;27;20107;-72
2022/04/16 12:01:21;;;;;;;2.85;0.80;;;13.40;72.00;;;;;;5139736;27;20086;-72
2022/04/16 12:03:48;;;;;;;3.33;0.90;;;13.40;67.80;;;;;;5138776;27;20047;-72
2022/04/16 12:06:15;;;;;;;2.90;0.73;;;13.30;71.10;;;;;;5121909;27;20091;-74
2022/04/16 12:08:42;;;;;;;4.57;1.02;;;13.40;69.10;;;;;;5157559;27;20083;-72
2022/04/16 12:11:09;;;;;;;2.83;0.80;;;13.50;73.40;;;;;;5159927;27;20486;-73
2022/04/16 12:13:42;;;;;;;3.28;0.82;;;13.50;69.30;;;;;;5142483;27;20046;-74
2022/04/16 12:16:13;;;;;;;2.90;0.80;;;13.50;67.70;;;;;;5141475;27;20050;-73
2022/04/16 12:18:40;;;;;;;3.15;0.93;;;13.50;70.40;;;;;;5124851;27;20103;-71
2022/04/16 12:21:14;;;;;;;3.83;0.93;;;13.50;69.80;;;;;;5141218;27;20053;-73
2022/04/16 12:23:41;;;;;;;2.70;0.82;;;13.60;66.60;;;;;;5121066;27;20039;-72
2022/04/16 12:26:14;;;;;;;5.13;0.95;;;13.60;70.60;;;;;;5141830;27;20107;-73
2022/04/16 12:28:48;;;;;;;5.18;0.82;;;13.60;68.20;;;;;;5143947;27;20039;-74
2022/04/16 12:31:29;;;;;;;4.20;1.00;;;13.80;67.20;;;;;;5145669;27;20042;-73
2022/04/16 12:33:55;;;;;;;2.65;0.70;;;13.80;66.60;;;;;;5167240;27;20047;-73
2022/04/16 12:36:21;;;;;;;2.70;0.80;;;13.80;68.00;;;;;;5145217;27;20047;-73
2022/04/16 12:38:47;;;;;;;2.33;0.75;;;13.90;66.70;;;;;;5159105;27;20050;-73
2022/04/16 12:41:13;;;;;;;3.17;1.00;;;13.90;73.30;;;;;;5139826;27;20057;-72
2022/04/16 12:43:45;;;;;;;4.88;1.33;;;13.90;68.90;;;;;;5159000;27;20103;-74
2022/04/16 12:46:10;;;;;;;4.72;0.93;;;13.90;68.80;;;;;;5126592;27;20086;-74
2022/04/16 12:48:36;;;;;;;4.20;1.02;;;13.90;68.40;;;;;;5142401;27;20043;-74
2022/04/16 12:51:02;;;;;;;3.75;0.70;;;14.00;68.20;;;;;;5109065;27;20046;-73
2022/04/16 12:53:34;;;;;;;4.07;0.77;;;14.00;62.60;;;;;;5160322;27;20057;-74
2022/04/16 12:56:00;;;;;;;4.38;1.02;;;14.00;64.20;;;;;;5160770;27;20039;-74
2022/04/16 12:58:26;;;;;;;4.13;1.30;;;14.00;64.70;;;;;;5142235;27;20126;-73
2022/04/16 13:00:52;;;;;;;4.40;0.98;;;14.10;67.00;;;;;;5159129;27;20039;-74
2022/04/16 13:03:18;;;;;;;3.20;0.63;;;14.00;67.60;;;;;;5158133;27;20050;-74
2022/04/16 13:05:45;;;;;;;5.28;1.20;;;14.10;61.60;;;;;;5140732;27;20035;-73